CheckWX is a tool to help pilots better visualize weather data.  It is not intended as a substitute for an official pre-flight weather briefing.

04:33:34 UTC

KDET METAR
Coleman A Young Municipal Airport
Detroit, Michigan, USA
Current

41 mins ago

KDET 240353Z 05003KT 10SM CLR 17/13 A3005 RMK AO2 SLP173 T01720133
Observed
Jul-24 @ 03:53 UTC
Wind
  • 050° at 3 KTS
Visibility
10 SM
Flight Rules
VFR
Cloud Levels
  • Clear skies
Temperature
17°C / 63°F
Dewpoint
13°C / 55°F
Humidity
77%
Altimeter
30.05" Hg
Pressure
1017.62 hPa
Previous

2 hours ago

KDET 240253Z 36004KT 10SM CLR 18/14 A3004 RMK AO2 SLP170 T01780139 51007
Observed
Jul-24 @ 02:53 UTC
Wind
  • 360° at 4 KTS
Visibility
10 SM
Flight Rules
VFR
Cloud Levels
  • Clear skies
Temperature
18°C / 64°F
Dewpoint
14°C / 57°F
Humidity
78%
Altimeter
30.04" Hg
Pressure
1017.32 hPa
Previous

3 hours ago

KDET 240153Z 00000KT 10SM CLR 18/14 A3003 RMK AO2 SLP167 T01830139
Observed
Jul-24 @ 01:53 UTC
Visibility
10 SM
Flight Rules
VFR
Cloud Levels
  • Clear skies
Temperature
18°C / 64°F
Dewpoint
14°C / 57°F
Humidity
78%
Altimeter
30.03" Hg
Pressure
1016.92 hPa